Vista, Missouri
Current Conditions -  °F | °C
As of 3:35 PM on Wednesday 26 Nov 2014 (Local Time) from KGLY Reporting Station
Overcast Overcast  
Wind Chill: 35°   Ceiling: 3600
Heat Index: 43°   Visibility: 10mi
Dew Point: 32°   Wind: 18mph
Humidity: 66%   Direction: 290°WNW
Pressure: 30.07"   Gusts: 26mph
Location:  37.99°N, 93.66°W
Report Text: KGLY 262135Z AUTO 29016G23KT 10SM OVC036 06/00 A3007 RMK AO2
Loading
Personal Weather Stations






























Interactive Weather Map New forecast layout! Learn more

10-Day Weather Forecast

Advertisements
Track Severe Weather on mobile